Time;durP1;ratioP1;P1;durP2;ratioP2;P2;SDS_P1;SDS_P2;PMS_P1;PMS_P2;Temp;Humidity;BMP_temperature;BMP_pressure;BME280_temperature;BME280_humidity;BME280_pressure;Samples;Min_cycle;Max_cycle;Signal;HPM_P1;HPM_P2
2022/03/08 00:01:43;;;;;;;22.85;16.33;;;-3276.30;52.30;;;-2.68;51.59;96554.31;5009722;28;20065;-69
2022/03/08 00:04:08;;;;;;;22.92;15.85;;;-3276.30;52.50;;;-2.68;51.50;96558.63;5008726;28;20120;-71
2022/03/08 00:06:34;;;;;;;23.10;16.20;;;-3276.20;53.10;;;-2.77;51.96;96549.72;5009696;28;20038;-70
2022/03/08 00:09:00;;;;;;;23.23;15.43;;;-3276.20;53.30;;;-2.79;51.85;96548.97;4993271;28;20042;-70
2022/03/08 00:11:26;;;;;;;24.80;16.40;;;-3276.10;53.20;;;-2.81;51.82;96546.50;4985405;28;20093;-70
2022/03/08 00:13:52;;;;;;;23.17;15.95;;;-3276.10;53.00;;;-2.81;51.99;96546.50;4998157;28;20511;-70
2022/03/08 00:16:18;;;;;;;23.52;16.10;;;-3276.10;53.20;;;-2.85;52.48;96550.19;5000183;28;20048;-72
2022/03/08 00:18:44;;;;;;;23.77;16.90;;;-3276.10;53.80;;;-2.85;52.70;96554.53;4973027;28;20495;-69
2022/03/08 00:21:11;;;;;;;24.33;16.70;;;-3276.10;54.20;;;-2.89;53.26;96542.78;5001732;28;20078;-69
2022/03/08 00:23:37;;;;;;;22.15;16.02;;;-3276.00;54.40;;;-2.92;52.51;96542.97;4995318;28;20409;-69
2022/03/08 00:26:03;;;;;;;23.00;16.20;;;-3276.00;54.60;;;-2.94;53.02;96543.06;4998807;28;20031;-68
2022/03/08 00:28:28;;;;;;;24.40;16.58;;;-3276.00;54.50;;;-2.97;53.05;96543.22;4987492;28;20055;-68
2022/03/08 00:30:55;;;;;;;25.23;16.27;;;-3276.00;54.00;;;-2.97;53.04;96538.06;4983365;28;20165;-70
2022/03/08 00:33:21;;;;;;;22.50;15.95;;;-3276.00;53.60;;;-2.98;52.82;96545.91;4981141;28;20143;-73
2022/03/08 00:35:46;;;;;;;22.52;16.35;;;-3276.00;53.40;;;-3.02;52.65;96539.28;4987140;28;20060;-70
2022/03/08 00:38:13;;;;;;;24.40;16.38;;;-3275.90;53.50;;;-3.05;52.95;96540.31;4987368;28;20125;-72
2022/03/08 00:40:38;;;;;;;24.17;16.15;;;-3275.90;53.40;;;-3.06;52.83;96535.25;4967260;28;20071;-70
2022/03/08 00:43:04;;;;;;;22.80;15.30;;;-3275.90;53.40;;;-3.05;53.10;96529.19;4996641;23;20073;-70
2022/03/08 00:45:30;;;;;;;21.42;15.82;;;-3275.90;53.20;;;-3.04;52.71;96533.41;4967260;28;20090;-72
2022/03/08 00:47:55;;;;;;;23.45;16.17;;;-3275.90;53.00;;;-3.02;52.80;96523.84;4944107;28;20031;-71
2022/03/08 00:50:23;;;;;;;21.77;15.88;;;-3276.00;53.00;;;-3.02;53.22;96526.44;4963650;28;20557;-72
2022/03/08 00:52:50;;;;;;;24.48;16.27;;;-3276.00;52.70;;;-3.02;52.93;96526.44;4983450;28;20069;-71
2022/03/08 00:55:17;;;;;;;22.05;16.35;;;-3276.00;52.50;;;-3.02;52.47;96526.44;4983312;28;20142;-71
2022/03/08 00:57:42;;;;;;;21.95;15.93;;;-3275.90;52.70;;;-3.04;52.70;96523.94;4957582;28;20043;-70
2022/03/08 01:00:11;;;;;;;20.13;15.02;;;-3275.90;52.50;;;-3.06;52.80;96520.66;4963595;28;20043;-72
2022/03/08 01:02:37;;;;;;;23.95;16.40;;;-3275.80;52.50;;;-3.10;52.63;96522.59;4934345;28;20105;-70
2022/03/08 01:05:03;;;;;;;24.88;16.13;;;-3275.80;52.90;;;-3.12;52.57;96521.88;4956569;28;20487;-70
2022/03/08 01:07:29;;;;;;;21.85;15.93;;;-3275.80;53.20;;;-3.12;52.94;96516.72;4974178;28;20418;-70
2022/03/08 01:09:55;;;;;;;22.95;15.13;;;-3275.80;53.30;;;-3.13;53.05;96517.63;4977686;28;20027;-71
2022/03/08 01:12:20;;;;;;;25.33;16.00;;;-3275.80;52.80;;;-3.11;52.62;96513.22;4947844;28;20077;-71
2022/03/08 01:14:46;;;;;;;22.70;15.45;;;-3275.80;52.30;;;-3.13;52.48;96504.78;4971898;28;20061;-71
2022/03/08 01:17:12;;;;;;;21.70;15.50;;;-3275.80;52.20;;;-3.10;52.71;96509.72;4961436;28;20086;-71
2022/03/08 01:19:37;;;;;;;22.23;15.07;;;-3275.80;52.10;;;-3.10;52.74;96503.75;4948988;28;20503;-70
2022/03/08 01:22:03;;;;;;;22.02;14.90;;;-3275.80;52.30;;;-3.11;52.46;96508.06;4930457;28;20050;-70
2022/03/08 01:24:30;;;;;;;23.60;16.02;;;-3275.80;52.20;;;-3.12;52.59;96503.03;4965072;28;20050;-70
2022/03/08 01:26:56;;;;;;;21.38;15.70;;;-3275.80;52.20;;;-3.14;52.65;96502.31;4940737;28;20386;-71
2022/03/08 01:29:23;;;;;;;21.10;15.05;;;-3275.80;52.30;;;-3.14;52.65;96497.97;4966656;28;20038;-70
2022/03/08 01:31:49;;;;;;;19.45;14.70;;;-3275.70;52.50;;;-3.14;52.53;96503.13;4961063;28;20058;-71
2022/03/08 01:34:15;;;;;;;22.60;15.32;;;-3275.70;52.60;;;-3.16;52.85;96499.81;4962395;28;20114;-70
2022/03/08 01:36:41;;;;;;;20.17;14.52;;;-3275.70;52.70;;;-3.16;52.98;96504.16;4932451;28;20066;-70
2022/03/08 01:39:07;;;;;;;22.42;15.10;;;-3275.70;52.80;;;-3.19;52.83;96499.16;4968231;28;20520;-69
2022/03/08 01:41:33;;;;;;;23.13;15.45;;;-3275.70;53.00;;;-3.20;52.88;96503.47;4932081;28;20077;-70
2022/03/08 01:43:59;;;;;;;24.88;15.73;;;-3275.70;52.60;;;-3.20;52.61;96495.75;4946930;28;20634;-70
2022/03/08 01:46:24;;;;;;;21.85;15.65;;;-3275.70;52.70;;;-3.22;52.93;96492.47;4954845;28;20578;-71
2022/03/08 01:48:50;;;;;;;21.48;15.30;;;-3275.70;52.70;;;-3.22;52.88;96495.03;4972990;28;20085;-71
2022/03/08 01:51:16;;;;;;;21.98;15.05;;;-3275.70;52.60;;;-3.24;52.73;96491.72;4962529;28;20034;-70
2022/03/08 01:53:42;;;;;;;21.80;15.77;;;-3275.70;52.60;;;-3.25;52.97;96487.50;4966770;28;20031;-70
2022/03/08 01:56:11;;;;;;;23.27;14.88;;;-3275.60;52.50;;;-3.24;53.35;96485.75;4957805;28;20110;-70
2022/03/08 01:58:37;;;;;;;20.60;14.68;;;-3275.60;52.60;;;-3.26;52.71;96478.16;4940878;28;20048;-69
2022/03/08 02:01:04;;;;;;;24.48;15.38;;;-3275.60;52.40;;;-3.28;53.24;96482.56;4971065;28;20039;-70
2022/03/08 02:03:30;;;;;;;23.35;15.05;;;-3275.60;52.50;;;-3.30;52.69;96486.97;4933959;28;20031;-70
2022/03/08 02:05:55;;;;;;;24.42;15.77;;;-3275.60;52.50;;;-3.30;52.65;96481.84;4966847;28;20093;-71
2022/03/08 02:08:21;;;;;;;23.65;15.98;;;-3275.60;52.60;;;-3.29;52.73;96475.75;4970200;28;20498;-72
2022/03/08 02:10:47;;;;;;;21.48;15.02;;;-3275.60;52.60;;;-3.30;52.86;96475.88;4967674;28;20046;-71
2022/03/08 02:13:12;;;;;;;24.02;16.25;;;-3275.60;52.90;;;-3.30;53.19;96466.41;4967291;28;20099;-70
2022/03/08 02:15:38;;;;;;;24.08;16.05;;;-3275.60;52.60;;;-3.28;52.86;96459.41;4967657;28;20101;-70
2022/03/08 02:18:04;;;;;;;23.48;16.48;;;-3275.70;52.60;;;-3.28;53.03;96469.69;4969735;28;20039;-70
2022/03/08 02:20:30;;;;;;;22.08;16.50;;;-3275.70;52.60;;;-3.28;52.85;96467.13;4965555;28;20070;-71
2022/03/08 02:22:56;;;;;;;23.23;15.30;;;-3275.70;52.50;;;-3.26;52.91;96462.72;4968733;28;20037;-71
2022/03/08 02:25:22;;;;;;;28.13;17.58;;;-3275.70;52.10;;;-3.25;52.91;96459.22;4983239;28;20430;-70
2022/03/08 02:27:50;;;;;;;22.80;16.23;;;-3275.70;52.10;;;-3.25;52.95;96460.97;4961662;28;20027;-70
2022/03/08 02:30:17;;;;;;;22.13;15.55;;;-3275.80;52.20;;;-3.23;53.09;96466.84;4966884;28;20119;-72
2022/03/08 02:32:43;;;;;;;24.10;16.30;;;-3275.80;52.40;;;-3.26;53.01;96467.84;4954208;28;20456;-70
2022/03/08 02:35:15;;;;;;;24.15;16.23;;;-3275.80;52.60;;;-3.25;54.06;96459.22;4934930;28;20031;-71
2022/03/08 02:37:45;;;;;;;22.42;16.08;;;-3275.80;53.00;;;-3.25;53.86;96458.38;4964586;28;20038;-71
2022/03/08 02:40:16;;;;;;;22.55;16.25;;;-3275.80;52.70;;;-3.26;53.78;96452.41;4952462;28;20046;-71
2022/03/08 02:42:42;;;;;;;22.35;16.27;;;-3275.70;52.80;;;-3.29;53.15;96447.47;4938900;28;20031;-70
2022/03/08 02:45:09;;;;;;;26.45;16.35;;;-3275.70;52.60;;;-3.31;53.36;96443.34;4957866;28;20157;-73
2022/03/08 02:47:35;;;;;;;22.85;15.82;;;-3275.70;52.60;;;-3.33;53.24;96446.03;4970974;28;20047;-71
2022/03/08 02:50:12;;;;;;;26.15;15.95;;;-3275.60;52.90;;;-3.35;54.38;96447.88;4956082;28;20039;-70
2022/03/08 02:52:39;;;;;;;28.15;17.25;;;-3275.60;52.70;;;-3.36;53.34;96435.94;4966735;28;20039;-71
2022/03/08 02:55:06;;;;;;;25.95;16.15;;;-3275.60;52.90;;;-3.40;53.38;96439.59;4978686;28;20077;-71
2022/03/08 02:57:32;;;;;;;22.52;16.10;;;-3275.60;53.10;;;-3.41;53.53;96436.19;4943778;28;20039;-71
2022/03/08 02:59:57;;;;;;;24.90;16.98;;;-3275.60;53.20;;;-3.44;53.70;96438.13;4967384;28;20122;-70
2022/03/08 03:02:23;;;;;;;27.50;16.33;;;-3275.50;53.60;;;-3.45;53.92;96439.06;4979655;28;20066;-72
2022/03/08 03:04:49;;;;;;;24.00;17.02;;;-3275.50;53.80;;;-3.46;53.61;96438.22;4965820;28;20059;-71
2022/03/08 03:07:15;;;;;;;25.85;16.58;;;-3275.50;53.60;;;-3.46;53.67;96429.69;4953327;28;20063;-72
2022/03/08 03:09:41;;;;;;;25.40;16.65;;;-3275.50;53.60;;;-3.48;53.87;96429.78;4960419;28;20482;-71
2022/03/08 03:12:07;;;;;;;25.88;17.90;;;-3275.50;53.70;;;-3.51;53.94;96436.88;4946943;28;20066;-70
2022/03/08 03:14:33;;;;;;;23.48;17.40;;;-3275.50;53.60;;;-3.53;53.99;96433.56;4938215;28;20043;-70
2022/03/08 03:16:59;;;;;;;24.70;16.80;;;-3275.40;53.70;;;-3.54;54.21;96431.91;4947661;28;20066;-70
2022/03/08 03:19:24;;;;;;;26.10;18.50;;;-3275.40;54.10;;;-3.56;54.01;96434.59;4968347;28;20068;-70
2022/03/08 03:21:50;;;;;;;26.90;19.02;;;-3275.40;53.90;;;-3.59;54.07;96434.78;4954329;28;20049;-71
2022/03/08 03:24:16;;;;;;;26.25;18.25;;;-3275.40;54.10;;;-3.59;54.25;96433.94;4951394;28;20039;-71
2022/03/08 03:26:43;;;;;;;28.05;18.05;;;-3275.40;54.20;;;-3.61;54.34;96440.94;4982686;28;20045;-70
2022/03/08 03:29:08;;;;;;;26.33;18.08;;;-3275.30;54.40;;;-3.61;54.38;96433.22;4974646;28;20062;-70
2022/03/08 03:31:34;;;;;;;26.63;17.70;;;-3275.40;54.30;;;-3.65;54.64;96431.72;4968087;28;20054;-72
2022/03/08 03:34:00;;;;;;;27.02;18.23;;;-3275.30;54.50;;;-3.68;54.43;96435.31;4952174;28;20062;-70
2022/03/08 03:36:25;;;;;;;26.70;17.17;;;-3275.30;54.50;;;-3.72;54.67;96424.41;4951743;28;20138;-71
2022/03/08 03:38:52;;;;;;;26.13;17.90;;;-3275.30;54.80;;;-3.74;54.68;96431.38;4966370;28;20030;-71
2022/03/08 03:41:18;;;;;;;26.58;16.95;;;-3275.20;54.70;;;-3.77;54.84;96428.19;4951973;28;20121;-71
2022/03/08 03:43:44;;;;;;;26.27;16.90;;;-3275.20;54.80;;;-3.78;55.13;96418.81;4965959;28;20036;-71
2022/03/08 03:46:10;;;;;;;25.65;17.65;;;-3275.20;55.10;;;-3.80;55.10;96421.50;4964577;28;20579;-75
2022/03/08 03:48:36;;;;;;;26.20;17.08;;;-3275.10;55.00;;;-3.81;55.18;96424.97;4958568;28;20067;-71
2022/03/08 03:51:01;;;;;;;26.67;17.95;;;-3275.10;55.10;;;-3.82;55.04;96423.31;4969797;28;20094;-70
2022/03/08 03:53:27;;;;;;;25.65;17.77;;;-3275.10;55.10;;;-3.82;55.07;96425.91;4966261;28;20366;-71
2022/03/08 03:55:53;;;;;;;31.50;17.50;;;-3275.10;55.10;;;-3.82;55.12;96428.47;4959247;28;20538;-71
2022/03/08 03:58:19;;;;;;;30.80;18.45;;;-3275.10;55.10;;;-3.83;55.21;96426.81;4951624;28;20114;-70
2022/03/08 04:00:45;;;;;;;24.50;17.00;;;-3275.10;55.20;;;-3.82;55.27;96428.47;4958716;28;20038;-75
2022/03/08 04:03:13;;;;;;;25.27;17.67;;;-3275.10;55.00;;;-3.82;55.19;96431.03;4960805;28;20446;-70
2022/03/08 04:05:38;;;;;;;25.85;17.50;;;-3275.20;55.00;;;-3.82;55.31;96430.22;4971854;28;20047;-69
2022/03/08 04:08:04;;;;;;;23.58;16.83;;;-3275.10;55.00;;;-3.84;55.53;96432.06;4958170;28;20027;-69
2022/03/08 04:10:30;;;;;;;23.92;16.70;;;-3275.10;55.10;;;-3.84;55.14;96430.31;4961218;28;20616;-71
2022/03/08 04:12:59;;;;;;;26.73;17.13;;;-3275.10;55.00;;;-3.85;55.36;96438.91;4978604;28;20071;-76
2022/03/08 04:15:26;;;;;;;32.50;20.98;;;-3275.10;55.20;;;-3.85;55.67;96443.22;4978475;28;20041;-68
2022/03/08 04:17:55;;;;;;;26.15;18.42;;;-3275.10;55.50;;;-3.87;55.79;96445.06;4966953;28;20039;-71
2022/03/08 04:20:21;;;;;;;28.27;18.40;;;-3275.10;55.30;;;-3.87;55.76;96442.50;4970435;28;20043;-72
2022/03/08 04:22:46;;;;;;;28.42;18.40;;;-3275.10;55.30;;;-3.87;55.65;96439.91;4968838;28;20042;-72
2022/03/08 04:25:12;;;;;;;25.92;18.23;;;-3275.10;56.30;;;-3.87;55.86;96435.59;4971475;28;20441;-69
2022/03/08 04:27:38;;;;;;;29.92;19.73;;;-3275.10;55.60;;;-3.90;55.58;96435.78;4971692;28;20062;-70
2022/03/08 04:30:14;;;;;;;31.95;20.58;;;-3275.10;55.40;;;-3.90;56.57;96446.06;4969402;28;20086;-70
2022/03/08 04:32:39;;;;;;;29.58;19.67;;;-3275.00;55.60;;;-3.92;55.70;96435.06;4953950;28;20023;-70
2022/03/08 04:35:07;;;;;;;25.90;17.70;;;-3275.00;55.70;;;-3.92;55.68;96440.19;4969514;28;20499;-70
2022/03/08 04:37:33;;;;;;;25.83;17.65;;;-3275.00;55.80;;;-3.93;55.82;96440.28;4969968;28;20043;-69
2022/03/08 04:39:59;;;;;;;26.30;16.90;;;-3275.00;55.70;;;-3.94;55.81;96429.19;4953961;28;20172;-70
2022/03/08 04:42:25;;;;;;;23.75;16.88;;;-3275.00;55.50;;;-3.96;55.82;96428.47;4952318;28;20053;-70
2022/03/08 04:44:50;;;;;;;28.23;17.50;;;-3275.00;55.60;;;-3.95;56.09;96426.72;4966862;28;20048;-70
2022/03/08 04:47:16;;;;;;;27.55;18.25;;;-3275.00;55.70;;;-3.96;55.97;96425.91;4950612;28;20127;-70
2022/03/08 04:49:42;;;;;;;35.90;20.35;;;-3275.00;56.10;;;-3.95;56.15;96427.53;4958935;28;20035;-70
2022/03/08 04:52:07;;;;;;;26.35;18.95;;;-3275.00;55.90;;;-3.95;55.84;96422.41;4934405;28;20043;-70
2022/03/08 04:54:33;;;;;;;24.65;17.02;;;-3275.00;55.90;;;-3.96;56.01;96422.50;4966242;28;20038;-70
2022/03/08 04:56:59;;;;;;;25.05;16.60;;;-3275.00;55.70;;;-3.98;55.93;96422.59;4969948;28;20439;-69
2022/03/08 04:59:26;;;;;;;26.30;17.90;;;-3275.00;55.70;;;-3.99;56.16;96426.09;4949400;28;20042;-70
2022/03/08 05:01:51;;;;;;;29.50;16.80;;;-3274.90;56.00;;;-3.99;56.74;96426.09;4953251;28;20049;-69
2022/03/08 05:04:17;;;;;;;23.75;16.77;;;-3275.00;56.80;;;-4.01;56.29;96422.78;4938737;28;20047;-69
2022/03/08 05:06:43;;;;;;;23.73;15.98;;;-3275.00;56.30;;;-4.01;56.40;96426.19;4950766;28;20548;-70
2022/03/08 05:09:09;;;;;;;26.67;17.33;;;-3275.00;56.00;;;-4.01;56.32;96433.06;4959393;28;20043;-69
2022/03/08 05:11:34;;;;;;;25.95;16.80;;;-3275.00;55.90;;;-4.00;56.63;96429.56;4985896;28;20123;-68
2022/03/08 05:14:00;;;;;;;36.58;23.05;;;-3275.00;55.80;;;-4.02;56.44;96428.84;4940928;28;20070;-68
2022/03/08 05:16:26;;;;;;;26.50;18.35;;;-3275.00;56.10;;;-4.03;56.54;96430.59;4964438;28;20089;-68
2022/03/08 05:18:52;;;;;;;29.15;17.58;;;-3275.00;56.00;;;-4.05;56.36;96435.00;4970308;28;20097;-68
2022/03/08 05:21:17;;;;;;;25.58;16.67;;;-3275.00;56.10;;;-4.06;56.65;96427.38;4941690;28;20129;-70
2022/03/08 05:23:43;;;;;;;25.35;16.67;;;-3275.00;56.30;;;-4.06;56.51;96424.81;4934790;28;20035;-71
2022/03/08 05:26:09;;;;;;;24.27;16.70;;;-3275.00;56.10;;;-4.07;56.51;96433.44;4959643;28;20541;-73
2022/03/08 05:28:34;;;;;;;27.65;17.58;;;-3275.00;56.10;;;-4.07;56.81;96429.13;4961224;28;20440;-71
2022/03/08 05:31:00;;;;;;;24.38;16.83;;;-3274.90;56.10;;;-4.08;56.76;96431.75;4969289;28;20062;-71
2022/03/08 05:33:26;;;;;;;26.48;17.73;;;-3275.00;56.00;;;-4.08;56.74;96436.88;4963933;28;20068;-71
2022/03/08 05:35:52;;;;;;;26.80;18.08;;;-3274.90;56.10;;;-4.07;56.72;96433.44;4934253;28;20062;-72
2022/03/08 05:38:18;;;;;;;24.30;16.67;;;-3275.00;56.00;;;-4.07;56.54;96425.72;4951377;28;20039;-69
2022/03/08 05:40:44;;;;;;;26.17;17.75;;;-3275.00;56.10;;;-4.06;56.95;96424.81;4980286;28;20479;-74
2022/03/08 05:43:10;;;;;;;29.88;19.15;;;-3275.00;56.20;;;-4.04;56.80;96425.53;4967558;28;20031;-72
2022/03/08 05:45:35;;;;;;;29.90;19.38;;;-3275.00;56.00;;;-4.05;56.92;96427.28;4928484;28;20114;-72
2022/03/08 05:48:01;;;;;;;27.60;16.95;;;-3275.00;56.40;;;-4.04;57.27;96428.94;4950735;28;20122;-70
2022/03/08 05:50:27;;;;;;;22.88;16.85;;;-3275.00;55.90;;;-4.07;56.81;96436.81;4952585;28;20118;-70
2022/03/08 05:52:53;;;;;;;25.02;17.50;;;-3275.00;56.20;;;-4.05;57.05;96426.47;4962928;28;20028;-70
2022/03/08 05:55:19;;;;;;;26.05;17.40;;;-3275.00;56.20;;;-4.05;57.12;96444.44;4935816;28;20075;-70
2022/03/08 05:57:45;;;;;;;27.15;16.77;;;-3275.00;56.20;;;-4.03;57.11;96434.91;4962797;28;20047;-70
2022/03/08 06:00:15;;;;;;;24.15;16.40;;;-3275.00;56.20;;;-4.02;56.99;96441.69;4967061;28;20577;-73
2022/03/08 06:02:41;;;;;;;25.77;17.95;;;-3275.00;56.20;;;-4.01;57.13;96433.88;4956168;28;20039;-73
2022/03/08 06:05:07;;;;;;;24.30;17.38;;;-3275.00;56.40;;;-3.99;57.37;96431.22;4934209;28;20031;-73
2022/03/08 06:07:33;;;;;;;23.30;15.95;;;-3275.10;56.30;;;-3.97;57.08;96429.38;4954417;28;20074;-73
2022/03/08 06:09:59;;;;;;;31.38;20.00;;;-3275.10;56.20;;;-3.95;57.41;96432.69;4985256;28;20050;-73
2022/03/08 06:12:25;;;;;;;27.73;16.20;;;-3275.20;56.40;;;-3.92;57.33;96434.25;4969121;28;20118;-73
2022/03/08 06:14:51;;;;;;;25.83;16.98;;;-3275.20;56.30;;;-3.88;57.22;96436.53;4952349;28;20139;-73
2022/03/08 06:17:17;;;;;;;22.83;16.45;;;-3275.30;56.10;;;-3.85;57.55;96433.75;4951498;28;20399;-74
2022/03/08 06:19:42;;;;;;;24.15;16.38;;;-3275.30;56.10;;;-3.82;57.27;96438.75;4966502;28;20166;-73
2022/03/08 06:22:08;;;;;;;26.15;16.33;;;-3275.30;55.90;;;-3.79;57.26;96438.56;4951678;28;20083;-73
2022/03/08 06:24:34;;;;;;;25.23;17.42;;;-3275.30;55.90;;;-3.77;57.44;96439.28;4950912;28;20067;-72
2022/03/08 06:26:59;;;;;;;24.60;16.90;;;-3275.40;56.00;;;-3.75;57.38;96440.03;4934389;28;20058;-73
2022/03/08 06:29:25;;;;;;;24.02;17.00;;;-3275.40;56.00;;;-3.76;57.57;96433.22;4964311;28;20074;-73
2022/03/08 06:31:51;;;;;;;22.33;16.23;;;-3275.40;56.20;;;-3.74;57.73;96439.09;4953801;28;20676;-74
2022/03/08 06:34:17;;;;;;;24.35;16.52;;;-3275.40;56.30;;;-3.72;57.59;96434.69;4952772;28;20518;-72
2022/03/08 06:36:43;;;;;;;24.90;17.95;;;-3275.40;56.20;;;-3.67;57.77;96431.00;4969161;28;20034;-73
2022/03/08 06:39:08;;;;;;;25.63;17.00;;;-3275.40;56.90;;;-3.67;57.79;96426.69;4941444;28;20093;-73
2022/03/08 06:41:34;;;;;;;23.00;16.05;;;-3275.50;56.30;;;-3.64;57.74;96430.81;4951809;28;20043;-73
2022/03/08 06:44:01;;;;;;;24.48;15.77;;;-3275.50;56.10;;;-3.61;57.59;96434.03;4958996;28;20049;-72
2022/03/08 06:46:26;;;;;;;24.17;15.50;;;-3275.50;56.10;;;-3.58;57.79;96426.13;4936535;28;20031;-73
2022/03/08 06:48:52;;;;;;;22.73;16.73;;;-3275.60;55.70;;;-3.52;57.50;96422.34;4945045;28;20446;-73
2022/03/08 06:51:18;;;;;;;23.88;16.98;;;-3275.70;55.70;;;-3.46;57.32;96432.25;4960464;28;20042;-73
2022/03/08 06:53:44;;;;;;;24.02;16.15;;;-3275.80;55.50;;;-3.40;57.83;96434.44;4953549;28;20058;-74
2022/03/08 06:56:09;;;;;;;31.00;16.88;;;-3275.90;55.50;;;-3.31;57.34;96438.19;4952804;28;20107;-71
2022/03/08 06:58:35;;;;;;;27.77;16.85;;;-3276.00;55.10;;;-3.25;57.47;96432.66;4961050;28;20035;-71
2022/03/08 07:01:01;;;;;;;28.92;16.17;;;-3276.00;54.70;;;-3.21;57.45;96434.94;4988600;28;20066;-71
2022/03/08 07:03:26;;;;;;;24.38;15.95;;;-3276.10;54.30;;;-3.14;56.98;96443.94;4957785;28;20059;-72
2022/03/08 07:05:52;;;;;;;24.02;15.60;;;-3276.30;53.90;;;-3.05;57.49;96439.13;4959528;28;20042;-72
2022/03/08 07:08:18;;;;;;;25.52;15.40;;;-3276.40;53.60;;;-2.96;57.10;96444.50;4955921;28;20050;-72
2022/03/08 07:10:44;;;;;;;24.92;15.35;;;-3276.60;53.50;;;-2.83;57.16;96444.56;4961744;28;20171;-71
2022/03/08 07:13:09;;;;;;;23.55;15.15;;;0.00;52.80;;;-2.68;57.02;96442.75;4969316;28;20090;-72
2022/03/08 07:15:35;;;;;;;26.20;15.32;;;0.10;51.90;;;-2.53;56.77;96442.56;4953009;28;20099;-72
2022/03/08 07:18:01;;;;;;;21.73;14.63;;;0.30;51.50;;;-2.39;56.59;96438.28;4953142;28;20070;-72
2022/03/08 07:20:27;;;;;;;23.52;15.85;;;0.40;51.00;;;-2.23;56.46;96444.06;4952411;28;20118;-72
2022/03/08 07:22:53;;;;;;;24.65;15.90;;;0.70;50.50;;;-2.05;56.40;96437.66;4953167;28;20439;-72
2022/03/08 07:25:18;;;;;;;33.47;17.30;;;1.00;50.30;;;-1.88;56.05;96437.34;4988131;28;20082;-72
2022/03/08 07:27:44;;;;;;;26.33;15.73;;;1.20;49.40;;;-1.72;55.85;96439.72;4972532;28;20031;-72
2022/03/08 07:30:10;;;;;;;22.50;15.00;;;1.40;48.90;;;-1.52;55.70;96448.66;4955070;28;20094;-72
2022/03/08 07:32:36;;;;;;;27.88;16.98;;;1.60;48.10;;;-1.34;55.91;96442.22;4937682;28;20546;-72
2022/03/08 07:35:03;;;;;;;28.45;17.08;;;2.10;48.20;;;-1.08;55.49;96447.31;4934851;28;20165;-71
2022/03/08 07:37:34;;;;;;;19.70;14.93;;;2.50;47.30;;;-0.82;54.89;96440.28;4936768;29;20051;-72
2022/03/08 07:40:00;;;;;;;25.27;14.45;;;2.80;46.00;;;-0.55;54.77;96440.84;4952828;28;20035;-72
2022/03/08 07:42:27;;;;;;;23.33;15.50;;;3.20;45.20;;;-0.25;54.59;96431.75;4951648;28;20045;-73
2022/03/08 07:44:53;;;;;;;25.42;14.70;;;3.80;44.10;;;0.11;54.34;96436.75;4964927;28;20039;-72
2022/03/08 07:47:19;;;;;;;25.48;15.40;;;4.40;42.70;;;0.47;54.38;96446.06;4939842;28;20034;-72
2022/03/08 07:49:45;;;;;;;21.52;13.57;;;5.10;41.40;;;0.87;53.42;96446.34;4952156;28;20517;-72
2022/03/08 07:52:11;;;;;;;18.08;13.63;;;5.70;39.80;;;1.25;52.03;96449.44;4976522;28;20035;-72
2022/03/08 07:54:37;;;;;;;17.95;13.73;;;6.10;38.80;;;1.59;52.23;96443.19;4977560;28;20109;-72
2022/03/08 07:57:03;;;;;;;19.40;12.95;;;6.40;38.00;;;1.91;51.15;96447.50;4971443;28;20063;-72
2022/03/08 07:59:29;;;;;;;17.38;12.65;;;6.60;37.30;;;2.19;50.69;96441.66;4963803;28;20478;-72
2022/03/08 08:01:55;;;;;;;15.27;11.90;;;6.80;36.90;;;2.45;49.17;96442.84;4967638;28;20175;-73
2022/03/08 08:04:20;;;;;;;16.10;12.18;;;7.00;36.40;;;2.65;49.06;96441.16;4935344;28;20039;-71
2022/03/08 08:06:46;;;;;;;14.85;12.10;;;7.20;36.10;;;2.90;48.57;96432.06;4952280;28;20473;-71
2022/03/08 08:09:12;;;;;;;15.70;12.73;;;7.80;35.00;;;3.18;47.92;96440.09;4951892;28;20110;-72
2022/03/08 08:11:38;;;;;;;15.70;12.13;;;8.10;34.00;;;3.44;47.68;96430.78;4967948;28;20035;-72
2022/03/08 08:14:04;;;;;;;15.60;12.02;;;8.80;33.60;;;3.74;46.89;96429.81;4940246;28;20047;-72
2022/03/08 08:16:30;;;;;;;16.85;12.73;;;9.10;32.60;;;4.03;46.33;96427.16;4970268;28;20403;-72
2022/03/08 08:18:58;;;;;;;15.82;11.75;;;9.60;32.20;;;4.33;46.09;96433.94;4971262;28;20066;-72
2022/03/08 08:21:24;;;;;;;24.73;13.40;;;10.10;31.60;;;4.65;45.36;96424.91;4955173;28;20073;-72
2022/03/08 08:23:50;;;;;;;20.00;12.05;;;10.60;31.00;;;4.94;44.70;96425.56;4935910;28;20082;-72
2022/03/08 08:26:15;;;;;;;18.25;11.57;;;10.70;30.00;;;5.22;44.26;96431.59;4934934;28;20031;-72
2022/03/08 08:28:41;;;;;;;15.63;9.98;;;11.10;29.80;;;5.49;43.67;96428.09;4936030;28;20062;-72
2022/03/08 08:31:07;;;;;;;11.68;10.10;;;11.10;28.90;;;5.72;42.92;96431.06;4970737;28;20033;-72
2022/03/08 08:33:33;;;;;;;13.13;10.85;;;11.40;28.90;;;6.00;42.23;96424.78;4970449;28;20446;-73
2022/03/08 08:35:58;;;;;;;16.73;10.13;;;11.90;28.10;;;6.34;41.83;96419.63;4951191;28;20122;-73
2022/03/08 08:38:24;;;;;;;14.55;10.38;;;12.40;27.30;;;6.56;41.35;96417.44;4952115;28;20122;-73
2022/03/08 08:40:50;;;;;;;15.55;10.88;;;12.50;28.10;;;6.86;41.16;96408.28;4967612;28;20032;-73
2022/03/08 08:43:16;;;;;;;16.23;9.70;;;12.70;27.30;;;7.19;41.43;96409.16;4951102;28;20059;-74
2022/03/08 08:45:41;;;;;;;12.50;9.77;;;13.00;27.10;;;7.51;40.37;96416.28;4968470;28;20106;-73
2022/03/08 08:48:07;;;;;;;12.95;8.88;;;13.20;26.50;;;7.72;40.07;96411.38;4970712;28;20639;-73
2022/03/08 08:50:34;;;;;;;15.93;9.85;;;13.40;26.30;;;7.97;39.60;96420.06;4981593;28;20057;-73
2022/03/08 08:53:00;;;;;;;11.88;8.93;;;13.60;26.20;;;8.23;39.61;96414.63;4962512;28;20057;-71
2022/03/08 08:55:26;;;;;;;14.07;8.82;;;14.00;25.90;;;8.54;38.81;96417.34;4938514;28;20455;-73
2022/03/08 08:57:51;;;;;;;9.23;8.25;;;14.30;25.20;;;8.78;38.78;96408.59;4938810;28;20103;-73
2022/03/08 09:00:17;;;;;;;12.80;8.00;;;14.60;25.40;;;8.99;38.19;96403.56;4941534;28;20051;-73
2022/03/08 09:02:44;;;;;;;13.23;7.93;;;14.50;24.90;;;9.18;38.06;96416.28;4967113;28;20031;-73
2022/03/08 09:05:11;;;;;;;10.02;7.82;;;14.70;24.70;;;9.41;36.54;96410.25;4968314;28;20027;-73
2022/03/08 09:07:37;;;;;;;11.30;7.47;;;14.80;24.70;;;9.67;36.31;96405.47;4986525;28;20042;-73
2022/03/08 09:10:04;;;;;;;9.55;7.88;;;15.10;24.30;;;9.98;35.55;96412.47;4985819;28;20035;-73
2022/03/08 09:12:30;;;;;;;10.48;7.72;;;15.50;23.80;;;10.13;35.01;96406.22;4985562;28;20046;-73
2022/03/08 09:14:56;;;;;;;10.40;7.28;;;15.50;23.30;;;10.40;36.11;96391.69;4945643;28;20533;-73
2022/03/08 09:17:21;;;;;;;10.20;7.47;;;16.00;22.90;;;10.65;34.83;96388.81;4950642;28;20056;-71
2022/03/08 09:19:48;;;;;;;9.07;6.60;;;16.30;22.90;;;10.93;34.49;96395.06;4958181;28;20030;-74
2022/03/08 09:22:13;;;;;;;10.00;6.70;;;16.40;22.50;;;11.16;33.86;96405.44;4953569;28;20422;-73
2022/03/08 09:24:39;;;;;;;8.50;6.60;;;16.50;22.30;;;11.41;34.01;96398.03;4937805;28;20062;-73
2022/03/08 09:27:05;;;;;;;8.15;6.60;;;16.70;21.90;;;11.76;32.75;96387.59;4986264;28;20459;-73
2022/03/08 09:29:31;;;;;;;11.23;6.20;;;17.20;21.90;;;11.82;32.66;96402.72;4964677;28;20122;-73
2022/03/08 09:31:57;;;;;;;11.40;6.22;;;17.00;21.30;;;11.93;31.99;96404.84;4950835;28;20055;-73
2022/03/08 09:34:23;;;;;;;8.15;5.40;;;17.00;21.40;;;11.96;31.48;96400.00;4950034;28;20062;-74
2022/03/08 09:36:49;;;;;;;8.90;5.60;;;17.10;20.80;;;12.14;31.00;96402.16;4950714;28;20522;-74
2022/03/08 09:39:14;;;;;;;13.43;5.82;;;17.50;20.60;;;12.33;30.63;96384.06;4953297;28;20660;-73
2022/03/08 09:41:40;;;;;;;23.27;6.50;;;17.90;20.30;;;12.50;31.05;96401.22;4958966;28;20074;-73
2022/03/08 09:44:10;;;;;;;16.52;5.53;;;18.10;19.80;;;12.64;29.18;96386.25;4966450;28;20036;-73
2022/03/08 09:46:36;;;;;;;6.47;4.78;;;18.60;19.50;;;12.85;29.84;96379.06;4918967;28;20415;-74
2022/03/08 09:49:02;;;;;;;9.77;5.70;;;19.10;18.60;;;13.05;29.88;96388.91;4966689;28;20038;-73
2022/03/08 09:51:28;;;;;;;9.05;5.05;;;19.50;18.70;;;13.24;29.10;96390.84;4965042;28;20031;-73